sensor_id;sensor_type;location;lat;lon;timestamp;P1;durP1;ratioP1;P2;durP2;ratioP2
48629;SDS011;34426;52.180;4.462;2023-11-21T00:00:49;23.95;;;8.82;;
48629;SDS011;34426;52.180;4.462;2023-11-21T00:03:15;27.27;;;8.95;;
48629;SDS011;34426;52.180;4.462;2023-11-21T00:05:40;24.77;;;8.80;;
48629;SDS011;34426;52.180;4.462;2023-11-21T00:08:06;24.17;;;8.48;;
48629;SDS011;34426;52.180;4.462;2023-11-21T00:10:32;26.30;;;8.10;;
48629;SDS011;34426;52.180;4.462;2023-11-21T00:12:58;25.92;;;9.20;;
48629;SDS011;34426;52.180;4.462;2023-11-21T00:15:25;23.95;;;8.75;;
48629;SDS011;34426;52.180;4.462;2023-11-21T00:17:50;28.08;;;9.30;;
48629;SDS011;34426;52.180;4.462;2023-11-21T00:20:16;23.92;;;8.93;;
48629;SDS011;34426;52.180;4.462;2023-11-21T00:22:45;24.23;;;9.23;;
48629;SDS011;34426;52.180;4.462;2023-11-21T00:25:11;32.85;;;9.05;;
48629;SDS011;34426;52.180;4.462;2023-11-21T00:27:37;32.35;;;9.65;;
48629;SDS011;34426;52.180;4.462;2023-11-21T00:30:03;26.55;;;9.70;;
48629;SDS011;34426;52.180;4.462;2023-11-21T00:32:31;24.63;;;9.45;;
48629;SDS011;34426;52.180;4.462;2023-11-21T00:34:57;28.50;;;10.27;;
48629;SDS011;34426;52.180;4.462;2023-11-21T00:37:22;22.42;;;9.80;;
48629;SDS011;34426;52.180;4.462;2023-11-21T00:39:48;25.25;;;9.98;;
48629;SDS011;34426;52.180;4.462;2023-11-21T00:42:13;29.23;;;9.05;;
48629;SDS011;34426;52.180;4.462;2023-11-21T00:44:39;20.20;;;9.75;;
48629;SDS011;34426;52.180;4.462;2023-11-21T00:47:04;21.70;;;8.65;;
48629;SDS011;34426;52.180;4.462;2023-11-21T00:49:31;26.80;;;9.50;;
48629;SDS011;34426;52.180;4.462;2023-11-21T00:51:57;26.70;;;9.40;;
48629;SDS011;34426;52.180;4.462;2023-11-21T00:54:23;22.58;;;8.95;;
48629;SDS011;34426;52.180;4.462;2023-11-21T00:56:48;28.13;;;9.75;;
48629;SDS011;34426;52.180;4.462;2023-11-21T00:59:14;29.73;;;8.60;;
48629;SDS011;34426;52.180;4.462;2023-11-21T01:01:39;16.80;;;8.10;;
48629;SDS011;34426;52.180;4.462;2023-11-21T01:04:05;24.27;;;8.45;;
48629;SDS011;34426;52.180;4.462;2023-11-21T01:06:32;26.83;;;8.77;;
48629;SDS011;34426;52.180;4.462;2023-11-21T01:08:58;28.95;;;9.68;;
48629;SDS011;34426;52.180;4.462;2023-11-21T01:11:24;25.20;;;9.40;;
48629;SDS011;34426;52.180;4.462;2023-11-21T01:13:49;22.08;;;9.25;;
48629;SDS011;34426;52.180;4.462;2023-11-21T01:16:15;27.92;;;9.35;;
48629;SDS011;34426;52.180;4.462;2023-11-21T01:18:41;18.02;;;8.50;;
48629;SDS011;34426;52.180;4.462;2023-11-21T01:21:06;31.70;;;9.90;;
48629;SDS011;34426;52.180;4.462;2023-11-21T01:23:33;24.83;;;10.18;;
48629;SDS011;34426;52.180;4.462;2023-11-21T01:25:59;28.17;;;9.80;;
48629;SDS011;34426;52.180;4.462;2023-11-21T01:28:24;24.10;;;9.20;;
48629;SDS011;34426;52.180;4.462;2023-11-21T01:30:50;17.35;;;8.13;;
48629;SDS011;34426;52.180;4.462;2023-11-21T01:33:16;21.05;;;7.93;;
48629;SDS011;34426;52.180;4.462;2023-11-21T01:35:41;18.48;;;7.90;;
48629;SDS011;34426;52.180;4.462;2023-11-21T01:38:10;24.75;;;8.60;;
48629;SDS011;34426;52.180;4.462;2023-11-21T01:40:37;24.65;;;8.20;;
48629;SDS011;34426;52.180;4.462;2023-11-21T01:43:05;20.55;;;7.75;;
48629;SDS011;34426;52.180;4.462;2023-11-21T01:45:31;22.70;;;8.20;;
48629;SDS011;34426;52.180;4.462;2023-11-21T01:48:00;19.25;;;7.88;;
48629;SDS011;34426;52.180;4.462;2023-11-21T01:50:26;15.80;;;7.50;;
48629;SDS011;34426;52.180;4.462;2023-11-21T01:52:56;14.73;;;7.63;;
48629;SDS011;34426;52.180;4.462;2023-11-21T01:55:24;18.50;;;7.43;;
48629;SDS011;34426;52.180;4.462;2023-11-21T01:57:51;26.10;;;7.93;;
48629;SDS011;34426;52.180;4.462;2023-11-21T02:00:16;17.88;;;7.78;;
48629;SDS011;34426;52.180;4.462;2023-11-21T02:02:42;14.75;;;7.43;;
48629;SDS011;34426;52.180;4.462;2023-11-21T02:05:14;17.77;;;6.65;;
48629;SDS011;34426;52.180;4.462;2023-11-21T02:07:40;18.35;;;6.95;;
48629;SDS011;34426;52.180;4.462;2023-11-21T02:10:07;20.48;;;7.07;;
48629;SDS011;34426;52.180;4.462;2023-11-21T02:12:33;22.88;;;7.80;;
48629;SDS011;34426;52.180;4.462;2023-11-21T02:15:03;25.00;;;7.60;;
48629;SDS011;34426;52.180;4.462;2023-11-21T02:17:32;14.63;;;6.78;;
48629;SDS011;34426;52.180;4.462;2023-11-21T02:19:58;20.63;;;7.40;;
48629;SDS011;34426;52.180;4.462;2023-11-21T02:22:24;16.92;;;6.55;;
48629;SDS011;34426;52.180;4.462;2023-11-21T02:24:57;15.00;;;6.95;;
48629;SDS011;34426;52.180;4.462;2023-11-21T02:27:23;17.98;;;7.30;;
48629;SDS011;34426;52.180;4.462;2023-11-21T02:29:52;15.50;;;7.53;;
48629;SDS011;34426;52.180;4.462;2023-11-21T02:32:18;15.18;;;7.53;;
48629;SDS011;34426;52.180;4.462;2023-11-21T02:34:45;16.35;;;7.72;;
48629;SDS011;34426;52.180;4.462;2023-11-21T02:37:11;16.00;;;6.15;;
48629;SDS011;34426;52.180;4.462;2023-11-21T02:39:36;19.95;;;7.28;;
48629;SDS011;34426;52.180;4.462;2023-11-21T02:42:06;15.60;;;6.43;;
48629;SDS011;34426;52.180;4.462;2023-11-21T02:44:32;17.42;;;6.97;;
48629;SDS011;34426;52.180;4.462;2023-11-21T02:46:57;16.20;;;6.40;;
48629;SDS011;34426;52.180;4.462;2023-11-21T02:49:23;15.25;;;7.32;;
48629;SDS011;34426;52.180;4.462;2023-11-21T02:51:49;22.50;;;7.70;;
48629;SDS011;34426;52.180;4.462;2023-11-21T02:54:14;23.95;;;7.45;;
48629;SDS011;34426;52.180;4.462;2023-11-21T02:56:40;20.90;;;7.65;;
48629;SDS011;34426;52.180;4.462;2023-11-21T02:59:07;17.50;;;7.03;;
48629;SDS011;34426;52.180;4.462;2023-11-21T03:01:35;14.05;;;6.63;;
48629;SDS011;34426;52.180;4.462;2023-11-21T03:04:00;16.55;;;7.40;;
48629;SDS011;34426;52.180;4.462;2023-11-21T03:06:26;11.77;;;7.30;;
48629;SDS011;34426;52.180;4.462;2023-11-21T03:08:55;14.00;;;7.28;;
48629;SDS011;34426;52.180;4.462;2023-11-21T03:11:20;16.52;;;7.18;;
48629;SDS011;34426;52.180;4.462;2023-11-21T03:13:46;17.63;;;8.55;;
48629;SDS011;34426;52.180;4.462;2023-11-21T03:16:13;18.63;;;7.45;;
48629;SDS011;34426;52.180;4.462;2023-11-21T03:18:39;13.13;;;7.15;;
48629;SDS011;34426;52.180;4.462;2023-11-21T03:21:05;20.58;;;8.07;;
48629;SDS011;34426;52.180;4.462;2023-11-21T03:23:31;16.48;;;7.68;;
48629;SDS011;34426;52.180;4.462;2023-11-21T03:25:57;12.23;;;8.15;;
48629;SDS011;34426;52.180;4.462;2023-11-21T03:28:23;13.10;;;6.97;;
48629;SDS011;34426;52.180;4.462;2023-11-21T03:30:48;15.45;;;7.90;;
48629;SDS011;34426;52.180;4.462;2023-11-21T03:33:15;14.20;;;7.65;;
48629;SDS011;34426;52.180;4.462;2023-11-21T03:35:41;16.42;;;7.43;;
48629;SDS011;34426;52.180;4.462;2023-11-21T03:38:06;15.45;;;8.38;;
48629;SDS011;34426;52.180;4.462;2023-11-21T03:40:32;18.27;;;8.25;;
48629;SDS011;34426;52.180;4.462;2023-11-21T03:42:57;18.45;;;8.13;;
48629;SDS011;34426;52.180;4.462;2023-11-21T03:45:23;16.60;;;8.20;;
48629;SDS011;34426;52.180;4.462;2023-11-21T03:47:48;20.80;;;8.25;;
48629;SDS011;34426;52.180;4.462;2023-11-21T03:50:16;18.83;;;8.95;;
48629;SDS011;34426;52.180;4.462;2023-11-21T03:52:41;16.83;;;7.88;;
48629;SDS011;34426;52.180;4.462;2023-11-21T03:55:07;14.95;;;7.85;;
48629;SDS011;34426;52.180;4.462;2023-11-21T03:57:33;14.13;;;8.25;;
48629;SDS011;34426;52.180;4.462;2023-11-21T03:59:59;16.85;;;8.07;;
48629;SDS011;34426;52.180;4.462;2023-11-21T04:02:24;23.13;;;8.57;;
48629;SDS011;34426;52.180;4.462;2023-11-21T04:04:50;13.73;;;7.05;;
48629;SDS011;34426;52.180;4.462;2023-11-21T04:07:22;17.77;;;8.07;;
48629;SDS011;34426;52.180;4.462;2023-11-21T04:09:49;18.52;;;7.30;;
48629;SDS011;34426;52.180;4.462;2023-11-21T04:12:14;15.90;;;8.20;;
48629;SDS011;34426;52.180;4.462;2023-11-21T04:14:40;13.05;;;6.95;;
48629;SDS011;34426;52.180;4.462;2023-11-21T04:17:05;15.40;;;7.68;;
48629;SDS011;34426;52.180;4.462;2023-11-21T04:19:31;12.73;;;7.45;;
48629;SDS011;34426;52.180;4.462;2023-11-21T04:21:59;14.63;;;7.05;;
48629;SDS011;34426;52.180;4.462;2023-11-21T04:24:29;15.38;;;6.90;;
48629;SDS011;34426;52.180;4.462;2023-11-21T04:26:55;15.57;;;7.53;;
48629;SDS011;34426;52.180;4.462;2023-11-21T04:29:20;14.95;;;7.25;;
48629;SDS011;34426;52.180;4.462;2023-11-21T04:31:46;13.13;;;7.20;;
48629;SDS011;34426;52.180;4.462;2023-11-21T04:34:12;14.20;;;6.65;;
48629;SDS011;34426;52.180;4.462;2023-11-21T04:36:37;13.60;;;6.22;;
48629;SDS011;34426;52.180;4.462;2023-11-21T04:39:03;9.25;;;5.35;;
48629;SDS011;34426;52.180;4.462;2023-11-21T04:41:30;10.52;;;5.75;;
48629;SDS011;34426;52.180;4.462;2023-11-21T04:43:55;16.10;;;7.03;;
48629;SDS011;34426;52.180;4.462;2023-11-21T04:46:21;11.52;;;5.57;;
48629;SDS011;34426;52.180;4.462;2023-11-21T04:48:47;10.55;;;5.70;;
48629;SDS011;34426;52.180;4.462;2023-11-21T04:51:12;9.25;;;5.65;;
48629;SDS011;34426;52.180;4.462;2023-11-21T04:53:38;10.50;;;5.88;;
48629;SDS011;34426;52.180;4.462;2023-11-21T04:56:04;10.05;;;5.43;;
48629;SDS011;34426;52.180;4.462;2023-11-21T04:58:31;14.50;;;5.20;;
48629;SDS011;34426;52.180;4.462;2023-11-21T05:00:57;12.52;;;5.63;;
48629;SDS011;34426;52.180;4.462;2023-11-21T05:03:22;10.00;;;4.93;;
48629;SDS011;34426;52.180;4.462;2023-11-21T05:05:48;11.57;;;5.35;;
48629;SDS011;34426;52.180;4.462;2023-11-21T05:08:13;12.02;;;5.20;;
48629;SDS011;34426;52.180;4.462;2023-11-21T05:10:42;11.35;;;5.25;;
48629;SDS011;34426;52.180;4.462;2023-11-21T05:13:07;10.77;;;4.88;;
48629;SDS011;34426;52.180;4.462;2023-11-21T05:15:34;8.70;;;4.53;;
48629;SDS011;34426;52.180;4.462;2023-11-21T05:18:00;9.43;;;4.60;;
48629;SDS011;34426;52.180;4.462;2023-11-21T05:20:25;12.98;;;4.72;;
48629;SDS011;34426;52.180;4.462;2023-11-21T05:22:51;7.15;;;4.53;;
48629;SDS011;34426;52.180;4.462;2023-11-21T05:25:19;9.98;;;4.30;;
48629;SDS011;34426;52.180;4.462;2023-11-21T05:27:45;11.00;;;4.72;;
48629;SDS011;34426;52.180;4.462;2023-11-21T05:30:11;10.05;;;4.05;;
48629;SDS011;34426;52.180;4.462;2023-11-21T05:32:38;7.60;;;3.70;;
48629;SDS011;34426;52.180;4.462;2023-11-21T05:35:04;9.70;;;3.70;;
48629;SDS011;34426;52.180;4.462;2023-11-21T05:37:30;8.07;;;3.83;;
48629;SDS011;34426;52.180;4.462;2023-11-21T05:39:55;6.70;;;3.45;;
48629;SDS011;34426;52.180;4.462;2023-11-21T05:42:21;15.15;;;4.25;;
48629;SDS011;34426;52.180;4.462;2023-11-21T05:44:47;6.85;;;3.33;;
48629;SDS011;34426;52.180;4.462;2023-11-21T05:47:12;8.80;;;3.50;;
48629;SDS011;34426;52.180;4.462;2023-11-21T05:49:39;8.63;;;3.45;;
48629;SDS011;34426;52.180;4.462;2023-11-21T05:52:05;10.23;;;3.95;;
48629;SDS011;34426;52.180;4.462;2023-11-21T05:54:34;16.17;;;4.70;;
48629;SDS011;34426;52.180;4.462;2023-11-21T05:56:59;10.80;;;3.70;;
48629;SDS011;34426;52.180;4.462;2023-11-21T05:59:25;11.48;;;4.03;;
48629;SDS011;34426;52.180;4.462;2023-11-21T06:01:50;17.95;;;6.10;;
48629;SDS011;34426;52.180;4.462;2023-11-21T06:04:18;11.50;;;3.92;;
48629;SDS011;34426;52.180;4.462;2023-11-21T06:06:45;19.02;;;3.60;;
48629;SDS011;34426;52.180;4.462;2023-11-21T06:09:11;12.70;;;3.38;;
48629;SDS011;34426;52.180;4.462;2023-11-21T06:11:36;8.57;;;3.05;;
48629;SDS011;34426;52.180;4.462;2023-11-21T06:14:02;9.27;;;3.17;;
48629;SDS011;34426;52.180;4.462;2023-11-21T06:16:28;13.48;;;3.63;;
48629;SDS011;34426;52.180;4.462;2023-11-21T06:18:53;15.15;;;3.75;;
48629;SDS011;34426;52.180;4.462;2023-11-21T06:21:19;14.57;;;3.38;;
48629;SDS011;34426;52.180;4.462;2023-11-21T06:23:46;23.58;;;4.40;;
48629;SDS011;34426;52.180;4.462;2023-11-21T06:26:11;22.02;;;5.43;;
48629;SDS011;34426;52.180;4.462;2023-11-21T06:28:37;22.05;;;6.95;;
48629;SDS011;34426;52.180;4.462;2023-11-21T06:31:03;21.52;;;4.57;;
48629;SDS011;34426;52.180;4.462;2023-11-21T06:33:28;17.08;;;5.32;;
48629;SDS011;34426;52.180;4.462;2023-11-21T06:35:54;23.42;;;5.25;;
48629;SDS011;34426;52.180;4.462;2023-11-21T06:38:20;17.92;;;5.50;;
48629;SDS011;34426;52.180;4.462;2023-11-21T06:40:50;20.35;;;5.40;;
48629;SDS011;34426;52.180;4.462;2023-11-21T06:43:16;21.95;;;5.88;;
48629;SDS011;34426;52.180;4.462;2023-11-21T06:45:41;33.47;;;7.03;;
48629;SDS011;34426;52.180;4.462;2023-11-21T06:48:09;34.03;;;6.90;;
48629;SDS011;34426;52.180;4.462;2023-11-21T06:50:35;32.88;;;7.22;;
48629;SDS011;34426;52.180;4.462;2023-11-21T06:53:00;35.42;;;7.10;;
48629;SDS011;34426;52.180;4.462;2023-11-21T06:55:26;31.15;;;7.18;;
48629;SDS011;34426;52.180;4.462;2023-11-21T06:57:53;34.08;;;7.95;;
48629;SDS011;34426;52.180;4.462;2023-11-21T07:00:18;27.65;;;6.65;;
48629;SDS011;34426;52.180;4.462;2023-11-21T07:02:44;33.17;;;8.13;;
48629;SDS011;34426;52.180;4.462;2023-11-21T07:05:10;28.55;;;6.65;;
48629;SDS011;34426;52.180;4.462;2023-11-21T07:07:35;37.05;;;7.75;;
48629;SDS011;34426;52.180;4.462;2023-11-21T07:10:01;28.80;;;7.05;;
48629;SDS011;34426;52.180;4.462;2023-11-21T07:12:30;33.83;;;7.38;;
48629;SDS011;34426;52.180;4.462;2023-11-21T07:14:57;23.45;;;6.70;;
48629;SDS011;34426;52.180;4.462;2023-11-21T07:17:23;30.40;;;7.50;;
48629;SDS011;34426;52.180;4.462;2023-11-21T07:19:49;22.77;;;7.00;;
48629;SDS011;34426;52.180;4.462;2023-11-21T07:22:15;33.75;;;7.70;;
48629;SDS011;34426;52.180;4.462;2023-11-21T07:24:41;34.95;;;7.43;;
48629;SDS011;34426;52.180;4.462;2023-11-21T07:27:08;31.77;;;8.10;;
48629;SDS011;34426;52.180;4.462;2023-11-21T07:29:36;34.92;;;8.00;;
48629;SDS011;34426;52.180;4.462;2023-11-21T07:32:03;25.98;;;7.43;;
48629;SDS011;34426;52.180;4.462;2023-11-21T07:34:28;34.47;;;7.97;;
48629;SDS011;34426;52.180;4.462;2023-11-21T07:36:54;32.28;;;6.90;;
48629;SDS011;34426;52.180;4.462;2023-11-21T07:39:20;29.15;;;7.32;;
48629;SDS011;34426;52.180;4.462;2023-11-21T07:41:45;27.02;;;5.88;;
48629;SDS011;34426;52.180;4.462;2023-11-21T07:44:11;24.10;;;6.00;;
48629;SDS011;34426;52.180;4.462;2023-11-21T07:46:37;19.83;;;5.88;;
48629;SDS011;34426;52.180;4.462;2023-11-21T07:49:03;34.60;;;5.93;;
48629;SDS011;34426;52.180;4.462;2023-11-21T07:51:29;29.52;;;7.60;;
48629;SDS011;34426;52.180;4.462;2023-11-21T07:53:54;28.30;;;5.57;;
48629;SDS011;34426;52.180;4.462;2023-11-21T07:56:20;26.38;;;6.45;;
48629;SDS011;34426;52.180;4.462;2023-11-21T07:58:45;25.33;;;6.32;;
48629;SDS011;34426;52.180;4.462;2023-11-21T08:01:11;27.90;;;6.70;;
48629;SDS011;34426;52.180;4.462;2023-11-21T08:03:36;28.80;;;6.70;;
48629;SDS011;34426;52.180;4.462;2023-11-21T08:06:04;32.63;;;6.90;;
48629;SDS011;34426;52.180;4.462;2023-11-21T08:08:29;28.10;;;7.55;;
48629;SDS011;34426;52.180;4.462;2023-11-21T08:10:55;23.85;;;6.88;;
48629;SDS011;34426;52.180;4.462;2023-11-21T08:13:20;24.48;;;6.68;;
48629;SDS011;34426;52.180;4.462;2023-11-21T08:15:46;32.78;;;7.20;;
48629;SDS011;34426;52.180;4.462;2023-11-21T08:18:11;24.65;;;7.22;;
48629;SDS011;34426;52.180;4.462;2023-11-21T08:20:37;37.55;;;6.93;;
48629;SDS011;34426;52.180;4.462;2023-11-21T08:23:05;23.10;;;5.97;;
48629;SDS011;34426;52.180;4.462;2023-11-21T08:25:30;34.40;;;6.82;;
48629;SDS011;34426;52.180;4.462;2023-11-21T08:27:56;25.48;;;6.78;;
48629;SDS011;34426;52.180;4.462;2023-11-21T08:30:21;21.25;;;6.38;;
48629;SDS011;34426;52.180;4.462;2023-11-21T08:32:47;21.58;;;5.70;;
48629;SDS011;34426;52.180;4.462;2023-11-21T08:35:13;16.85;;;5.80;;
48629;SDS011;34426;52.180;4.462;2023-11-21T08:37:38;15.77;;;4.47;;
48629;SDS011;34426;52.180;4.462;2023-11-21T08:40:06;9.25;;;4.32;;
48629;SDS011;34426;52.180;4.462;2023-11-21T08:42:32;15.07;;;5.22;;
48629;SDS011;34426;52.180;4.462;2023-11-21T08:44:57;11.57;;;4.43;;
48629;SDS011;34426;52.180;4.462;2023-11-21T08:47:23;15.27;;;4.90;;
48629;SDS011;34426;52.180;4.462;2023-11-21T08:49:48;10.07;;;5.60;;
48629;SDS011;34426;52.180;4.462;2023-11-21T08:52:14;16.50;;;5.57;;
48629;SDS011;34426;52.180;4.462;2023-11-21T08:54:39;10.15;;;5.50;;
48629;SDS011;34426;52.180;4.462;2023-11-21T08:57:06;11.52;;;5.28;;
48629;SDS011;34426;52.180;4.462;2023-11-21T08:59:32;15.55;;;5.75;;
48629;SDS011;34426;52.180;4.462;2023-11-21T09:01:58;9.32;;;5.22;;
48629;SDS011;34426;52.180;4.462;2023-11-21T09:04:23;7.78;;;5.30;;
48629;SDS011;34426;52.180;4.462;2023-11-21T09:06:49;8.18;;;5.50;;
48629;SDS011;34426;52.180;4.462;2023-11-21T09:09:15;11.23;;;5.78;;
48629;SDS011;34426;52.180;4.462;2023-11-21T09:11:41;11.65;;;6.05;;
48629;SDS011;34426;52.180;4.462;2023-11-21T09:14:08;9.98;;;6.00;;
48629;SDS011;34426;52.180;4.462;2023-11-21T09:16:37;9.48;;;6.22;;
48629;SDS011;34426;52.180;4.462;2023-11-21T09:19:02;13.45;;;6.45;;
48629;SDS011;34426;52.180;4.462;2023-11-21T09:21:28;9.32;;;6.57;;
48629;SDS011;34426;52.180;4.462;2023-11-21T09:23:56;8.70;;;6.32;;
48629;SDS011;34426;52.180;4.462;2023-11-21T09:26:22;12.70;;;7.15;;
48629;SDS011;34426;52.180;4.462;2023-11-21T09:28:47;11.70;;;7.60;;
48629;SDS011;34426;52.180;4.462;2023-11-21T09:31:14;13.80;;;6.80;;
48629;SDS011;34426;52.180;4.462;2023-11-21T09:33:40;11.90;;;6.88;;
48629;SDS011;34426;52.180;4.462;2023-11-21T09:36:10;14.85;;;7.30;;
48629;SDS011;34426;52.180;4.462;2023-11-21T09:38:36;11.10;;;6.55;;
48629;SDS011;34426;52.180;4.462;2023-11-21T09:41:02;11.70;;;6.88;;
48629;SDS011;34426;52.180;4.462;2023-11-21T09:43:29;12.02;;;6.80;;
48629;SDS011;34426;52.180;4.462;2023-11-21T09:45:59;12.40;;;6.38;;
48629;SDS011;34426;52.180;4.462;2023-11-21T09:48:28;10.55;;;6.15;;
48629;SDS011;34426;52.180;4.462;2023-11-21T09:50:55;17.17;;;6.32;;
48629;SDS011;34426;52.180;4.462;2023-11-21T09:53:22;9.30;;;6.25;;
48629;SDS011;34426;52.180;4.462;2023-11-21T09:55:48;8.57;;;5.65;;
48629;SDS011;34426;52.180;4.462;2023-11-21T09:58:16;9.90;;;5.90;;
48629;SDS011;34426;52.180;4.462;2023-11-21T10:00:42;10.13;;;5.97;;
48629;SDS011;34426;52.180;4.462;2023-11-21T10:03:09;11.70;;;6.55;;
48629;SDS011;34426;52.180;4.462;2023-11-21T10:05:36;9.02;;;5.53;;
48629;SDS011;34426;52.180;4.462;2023-11-21T10:08:04;7.75;;;5.38;;
48629;SDS011;34426;52.180;4.462;2023-11-21T10:10:32;12.38;;;4.88;;
48629;SDS011;34426;52.180;4.462;2023-11-21T10:12:59;15.57;;;7.97;;
48629;SDS011;34426;52.180;4.462;2023-11-21T10:15:27;13.38;;;6.63;;
48629;SDS011;34426;52.180;4.462;2023-11-21T10:17:55;12.43;;;5.43;;
48629;SDS011;34426;52.180;4.462;2023-11-21T10:20:21;13.35;;;5.45;;
48629;SDS011;34426;52.180;4.462;2023-11-21T10:22:49;9.18;;;5.05;;
48629;SDS011;34426;52.180;4.462;2023-11-21T10:25:15;9.52;;;4.90;;
48629;SDS011;34426;52.180;4.462;2023-11-21T10:27:41;7.88;;;4.65;;
48629;SDS011;34426;52.180;4.462;2023-11-21T10:30:07;7.55;;;4.13;;
48629;SDS011;34426;52.180;4.462;2023-11-21T10:32:34;7.20;;;4.35;;
48629;SDS011;34426;52.180;4.462;2023-11-21T10:35:00;7.05;;;4.65;;
48629;SDS011;34426;52.180;4.462;2023-11-21T10:37:26;8.63;;;5.32;;
48629;SDS011;34426;52.180;4.462;2023-11-21T10:39:55;6.93;;;5.28;;
48629;SDS011;34426;52.180;4.462;2023-11-21T10:42:22;6.15;;;5.15;;
48629;SDS011;34426;52.180;4.462;2023-11-21T10:44:47;10.52;;;5.55;;
48629;SDS011;34426;52.180;4.462;2023-11-21T10:47:13;8.65;;;6.63;;
48629;SDS011;34426;52.180;4.462;2023-11-21T10:49:39;12.25;;;8.63;;
48629;SDS011;34426;52.180;4.462;2023-11-21T10:52:05;8.55;;;6.78;;
48629;SDS011;34426;52.180;4.462;2023-11-21T10:54:30;13.23;;;8.60;;
48629;SDS011;34426;52.180;4.462;2023-11-21T10:56:58;14.45;;;10.57;;
48629;SDS011;34426;52.180;4.462;2023-11-21T10:59:25;18.30;;;13.85;;
48629;SDS011;34426;52.180;4.462;2023-11-21T11:01:54;26.73;;;15.07;;
48629;SDS011;34426;52.180;4.462;2023-11-21T11:04:23;10.35;;;6.65;;
48629;SDS011;34426;52.180;4.462;2023-11-21T11:06:54;10.23;;;6.43;;
48629;SDS011;34426;52.180;4.462;2023-11-21T11:09:20;10.35;;;7.03;;
48629;SDS011;34426;52.180;4.462;2023-11-21T11:11:46;7.97;;;6.57;;
48629;SDS011;34426;52.180;4.462;2023-11-21T11:14:15;9.93;;;6.53;;
48629;SDS011;34426;52.180;4.462;2023-11-21T11:16:45;9.43;;;7.47;;
48629;SDS011;34426;52.180;4.462;2023-11-21T11:19:11;11.77;;;7.60;;
48629;SDS011;34426;52.180;4.462;2023-11-21T11:21:38;10.52;;;7.45;;
48629;SDS011;34426;52.180;4.462;2023-11-21T11:24:26;13.23;;;7.53;;
48629;SDS011;34426;52.180;4.462;2023-11-21T11:27:15;12.90;;;7.70;;
48629;SDS011;34426;52.180;4.462;2023-11-21T11:29:52;12.30;;;8.38;;
48629;SDS011;34426;52.180;4.462;2023-11-21T11:32:35;16.40;;;8.40;;
48629;SDS011;34426;52.180;4.462;2023-11-21T11:35:10;23.33;;;8.82;;
48629;SDS011;34426;52.180;4.462;2023-11-21T11:37:51;14.90;;;8.68;;
48629;SDS011;34426;52.180;4.462;2023-11-21T11:40:24;10.85;;;7.97;;
48629;SDS011;34426;52.180;4.462;2023-11-21T11:43:03;8.68;;;7.13;;
48629;SDS011;34426;52.180;4.462;2023-11-21T11:45:33;10.73;;;7.32;;
48629;SDS011;34426;52.180;4.462;2023-11-21T11:48:00;10.13;;;7.07;;
48629;SDS011;34426;52.180;4.462;2023-11-21T11:50:26;10.13;;;6.72;;
48629;SDS011;34426;52.180;4.462;2023-11-21T11:52:52;12.23;;;7.30;;
48629;SDS011;34426;52.180;4.462;2023-11-21T11:55:19;10.32;;;7.32;;
48629;SDS011;34426;52.180;4.462;2023-11-21T11:57:47;8.82;;;7.00;;
48629;SDS011;34426;52.180;4.462;2023-11-21T12:00:14;8.40;;;6.38;;
48629;SDS011;34426;52.180;4.462;2023-11-21T12:02:43;13.43;;;7.00;;
48629;SDS011;34426;52.180;4.462;2023-11-21T12:05:10;12.40;;;7.43;;
48629;SDS011;34426;52.180;4.462;2023-11-21T12:07:42;11.35;;;6.88;;
48629;SDS011;34426;52.180;4.462;2023-11-21T12:10:13;9.88;;;6.75;;
48629;SDS011;34426;52.180;4.462;2023-11-21T12:12:43;12.57;;;7.28;;
48629;SDS011;34426;52.180;4.462;2023-11-21T12:15:10;8.38;;;6.10;;
48629;SDS011;34426;52.180;4.462;2023-11-21T12:17:36;10.68;;;6.82;;
48629;SDS011;34426;52.180;4.462;2023-11-21T12:20:04;9.40;;;6.13;;
48629;SDS011;34426;52.180;4.462;2023-11-21T12:22:30;8.50;;;6.28;;
48629;SDS011;34426;52.180;4.462;2023-11-21T12:24:56;10.13;;;5.65;;
48629;SDS011;34426;52.180;4.462;2023-11-21T12:27:21;8.45;;;6.20;;
48629;SDS011;34426;52.180;4.462;2023-11-21T12:29:47;8.77;;;6.07;;
48629;SDS011;34426;52.180;4.462;2023-11-21T12:32:12;7.75;;;6.00;;
48629;SDS011;34426;52.180;4.462;2023-11-21T12:34:38;18.83;;;6.85;;
48629;SDS011;34426;52.180;4.462;2023-11-21T12:37:05;9.05;;;7.05;;
48629;SDS011;34426;52.180;4.462;2023-11-21T12:39:30;9.25;;;6.80;;
48629;SDS011;34426;52.180;4.462;2023-11-21T12:41:56;9.95;;;6.80;;
48629;SDS011;34426;52.180;4.462;2023-11-21T12:44:22;8.80;;;5.75;;
48629;SDS011;34426;52.180;4.462;2023-11-21T12:46:47;7.60;;;5.78;;
48629;SDS011;34426;52.180;4.462;2023-11-21T12:49:13;8.32;;;5.32;;
48629;SDS011;34426;52.180;4.462;2023-11-21T12:51:39;9.15;;;5.40;;
48629;SDS011;34426;52.180;4.462;2023-11-21T12:54:06;8.00;;;5.25;;
48629;SDS011;34426;52.180;4.462;2023-11-21T12:56:33;11.85;;;5.88;;
48629;SDS011;34426;52.180;4.462;2023-11-21T12:58:58;9.73;;;5.82;;
48629;SDS011;34426;52.180;4.462;2023-11-21T13:01:27;9.48;;;5.85;;
48629;SDS011;34426;52.180;4.462;2023-11-21T13:03:52;9.43;;;5.50;;
48629;SDS011;34426;52.180;4.462;2023-11-21T13:06:18;8.77;;;5.80;;
48629;SDS011;34426;52.180;4.462;2023-11-21T13:08:44;8.30;;;5.60;;
48629;SDS011;34426;52.180;4.462;2023-11-21T13:11:11;12.60;;;5.97;;
48629;SDS011;34426;52.180;4.462;2023-11-21T13:13:37;9.93;;;6.03;;
48629;SDS011;34426;52.180;4.462;2023-11-21T13:16:06;10.15;;;5.32;;
48629;SDS011;34426;52.180;4.462;2023-11-21T13:18:32;12.68;;;5.68;;
48629;SDS011;34426;52.180;4.462;2023-11-21T13:20:58;13.27;;;5.80;;
48629;SDS011;34426;52.180;4.462;2023-11-21T13:23:27;13.57;;;6.38;;
48629;SDS011;34426;52.180;4.462;2023-11-21T13:25:53;9.30;;;6.07;;
48629;SDS011;34426;52.180;4.462;2023-11-21T13:28:20;7.82;;;5.20;;
48629;SDS011;34426;52.180;4.462;2023-11-21T13:30:46;9.57;;;6.47;;
48629;SDS011;34426;52.180;4.462;2023-11-21T13:33:11;9.30;;;6.32;;
48629;SDS011;34426;52.180;4.462;2023-11-21T13:35:38;8.10;;;5.88;;
48629;SDS011;34426;52.180;4.462;2023-11-21T13:38:05;11.00;;;6.05;;
48629;SDS011;34426;52.180;4.462;2023-11-21T13:40:31;8.20;;;6.20;;
48629;SDS011;34426;52.180;4.462;2023-11-21T13:42:58;7.07;;;5.65;;
48629;SDS011;34426;52.180;4.462;2023-11-21T13:45:25;8.32;;;6.13;;
48629;SDS011;34426;52.180;4.462;2023-11-21T13:47:51;8.43;;;6.30;;
48629;SDS011;34426;52.180;4.462;2023-11-21T13:50:18;8.35;;;6.05;;
48629;SDS011;34426;52.180;4.462;2023-11-21T13:52:44;10.00;;;6.28;;
48629;SDS011;34426;52.180;4.462;2023-11-21T13:55:10;10.82;;;6.93;;
48629;SDS011;34426;52.180;4.462;2023-11-21T13:57:36;8.50;;;6.93;;
48629;SDS011;34426;52.180;4.462;2023-11-21T14:00:01;9.13;;;6.43;;
48629;SDS011;34426;52.180;4.462;2023-11-21T14:02:31;9.55;;;6.88;;
48629;SDS011;34426;52.180;4.462;2023-11-21T14:04:57;10.90;;;7.13;;
48629;SDS011;34426;52.180;4.462;2023-11-21T14:07:23;7.22;;;6.38;;
48629;SDS011;34426;52.180;4.462;2023-11-21T14:09:48;9.88;;;7.25;;
48629;SDS011;34426;52.180;4.462;2023-11-21T14:12:14;10.30;;;7.80;;
48629;SDS011;34426;52.180;4.462;2023-11-21T14:14:40;10.52;;;7.80;;
48629;SDS011;34426;52.180;4.462;2023-11-21T14:17:05;13.75;;;8.30;;
48629;SDS011;34426;52.180;4.462;2023-11-21T14:19:32;15.55;;;8.82;;
48629;SDS011;34426;52.180;4.462;2023-11-21T14:21:57;9.23;;;8.32;;
48629;SDS011;34426;52.180;4.462;2023-11-21T14:24:23;13.55;;;9.05;;
48629;SDS011;34426;52.180;4.462;2023-11-21T14:26:49;11.18;;;9.00;;
48629;SDS011;34426;52.180;4.462;2023-11-21T14:29:15;12.95;;;9.65;;
48629;SDS011;34426;52.180;4.462;2023-11-21T14:31:41;14.18;;;9.80;;
48629;SDS011;34426;52.180;4.462;2023-11-21T14:34:07;15.27;;;10.20;;